sensor_id;sensor_type;location;lat;lon;timestamp;P1;durP1;ratioP1;P2;durP2;ratioP2
65063;SDS011;51654;51.452;6.644;2022-11-20T00:01:26;31.60;;;14.10;;
65063;SDS011;51654;51.452;6.644;2022-11-20T00:03:54;34.93;;;15.13;;
65063;SDS011;51654;51.452;6.644;2022-11-20T00:06:22;40.53;;;14.47;;
65063;SDS011;51654;51.452;6.644;2022-11-20T00:08:49;26.73;;;14.00;;
65063;SDS011;51654;51.452;6.644;2022-11-20T00:11:17;28.53;;;13.73;;
65063;SDS011;51654;51.452;6.644;2022-11-20T00:13:46;27.33;;;15.30;;
65063;SDS011;51654;51.452;6.644;2022-11-20T00:16:15;23.63;;;13.63;;
65063;SDS011;51654;51.452;6.644;2022-11-20T00:18:44;30.20;;;14.33;;
65063;SDS011;51654;51.452;6.644;2022-11-20T00:21:29;26.80;;;14.20;;
65063;SDS011;51654;51.452;6.644;2022-11-20T00:23:57;26.37;;;13.77;;
65063;SDS011;51654;51.452;6.644;2022-11-20T00:26:24;33.37;;;16.23;;
65063;SDS011;51654;51.452;6.644;2022-11-20T00:28:53;41.30;;;16.87;;
65063;SDS011;51654;51.452;6.644;2022-11-20T00:31:21;34.10;;;16.33;;
65063;SDS011;51654;51.452;6.644;2022-11-20T00:33:48;30.13;;;16.33;;
65063;SDS011;51654;51.452;6.644;2022-11-20T00:36:16;32.53;;;15.77;;
65063;SDS011;51654;51.452;6.644;2022-11-20T00:38:44;35.90;;;15.73;;
65063;SDS011;51654;51.452;6.644;2022-11-20T00:41:12;30.43;;;15.50;;
65063;SDS011;51654;51.452;6.644;2022-11-20T00:43:40;40.90;;;15.47;;
65063;SDS011;51654;51.452;6.644;2022-11-20T00:46:14;27.33;;;14.07;;
65063;SDS011;51654;51.452;6.644;2022-11-20T00:48:43;35.87;;;16.57;;
65063;SDS011;51654;51.452;6.644;2022-11-20T00:51:11;59.67;;;24.27;;
65063;SDS011;51654;51.452;6.644;2022-11-20T00:53:39;57.30;;;23.77;;
65063;SDS011;51654;51.452;6.644;2022-11-20T00:56:09;117.75;;;49.75;;
65063;SDS011;51654;51.452;6.644;2022-11-20T00:58:38;43.80;;;19.45;;
65063;SDS011;51654;51.452;6.644;2022-11-20T01:01:17;33.13;;;16.20;;
65063;SDS011;51654;51.452;6.644;2022-11-20T01:03:46;36.60;;;15.93;;
65063;SDS011;51654;51.452;6.644;2022-11-20T01:06:18;34.28;;;15.52;;
65063;SDS011;51654;51.452;6.644;2022-11-20T01:08:47;43.20;;;17.40;;
65063;SDS011;51654;51.452;6.644;2022-11-20T01:11:21;37.63;;;16.03;;
65063;SDS011;51654;51.452;6.644;2022-11-20T01:13:51;27.67;;;13.75;;
65063;SDS011;51654;51.452;6.644;2022-11-20T01:16:20;26.20;;;13.20;;
65063;SDS011;51654;51.452;6.644;2022-11-20T01:18:52;38.67;;;13.70;;
65063;SDS011;51654;51.452;6.644;2022-11-20T01:21:21;37.55;;;13.75;;
65063;SDS011;51654;51.452;6.644;2022-11-20T01:23:50;28.80;;;13.83;;
65063;SDS011;51654;51.452;6.644;2022-11-20T01:26:21;39.13;;;16.30;;
65063;SDS011;51654;51.452;6.644;2022-11-20T01:28:49;32.30;;;14.25;;
65063;SDS011;51654;51.452;6.644;2022-11-20T01:31:17;34.40;;;15.37;;
65063;SDS011;51654;51.452;6.644;2022-11-20T01:33:49;27.70;;;13.50;;
65063;SDS011;51654;51.452;6.644;2022-11-20T01:36:19;25.80;;;14.47;;
65063;SDS011;51654;51.452;6.644;2022-11-20T01:38:47;30.70;;;15.77;;
65063;SDS011;51654;51.452;6.644;2022-11-20T01:41:17;27.43;;;14.40;;
65063;SDS011;51654;51.452;6.644;2022-11-20T01:44:02;27.20;;;14.70;;
65063;SDS011;51654;51.452;6.644;2022-11-20T01:46:31;39.00;;;15.53;;
65063;SDS011;51654;51.452;6.644;2022-11-20T01:49:01;31.73;;;16.10;;
65063;SDS011;51654;51.452;6.644;2022-11-20T01:51:39;38.40;;;16.20;;
65063;SDS011;51654;51.452;6.644;2022-11-20T01:54:14;32.33;;;15.13;;
65063;SDS011;51654;51.452;6.644;2022-11-20T01:56:46;29.40;;;14.03;;
65063;SDS011;51654;51.452;6.644;2022-11-20T01:59:16;30.23;;;16.07;;
65063;SDS011;51654;51.452;6.644;2022-11-20T02:01:45;30.67;;;15.63;;
65063;SDS011;51654;51.452;6.644;2022-11-20T02:04:13;32.90;;;15.50;;
65063;SDS011;51654;51.452;6.644;2022-11-20T02:06:46;24.83;;;14.67;;
65063;SDS011;51654;51.452;6.644;2022-11-20T02:09:17;28.63;;;14.60;;
65063;SDS011;51654;51.452;6.644;2022-11-20T02:11:44;35.23;;;16.40;;
65063;SDS011;51654;51.452;6.644;2022-11-20T02:14:11;27.43;;;14.50;;
65063;SDS011;51654;51.452;6.644;2022-11-20T02:16:39;29.63;;;14.87;;
65063;SDS011;51654;51.452;6.644;2022-11-20T02:19:14;27.90;;;15.18;;
65063;SDS011;51654;51.452;6.644;2022-11-20T02:22:18;98.03;;;36.63;;
65063;SDS011;51654;51.452;6.644;2022-11-20T02:24:58;102.03;;;37.30;;
65063;SDS011;51654;51.452;6.644;2022-11-20T02:27:27;62.57;;;26.60;;
65063;SDS011;51654;51.452;6.644;2022-11-20T02:29:56;81.77;;;31.70;;
65063;SDS011;51654;51.452;6.644;2022-11-20T02:32:27;34.20;;;17.73;;
65063;SDS011;51654;51.452;6.644;2022-11-20T02:34:56;39.43;;;19.27;;
65063;SDS011;51654;51.452;6.644;2022-11-20T02:37:32;92.97;;;31.70;;
65063;SDS011;51654;51.452;6.644;2022-11-20T02:40:00;54.77;;;23.57;;
65063;SDS011;51654;51.452;6.644;2022-11-20T02:42:27;32.43;;;18.63;;
65063;SDS011;51654;51.452;6.644;2022-11-20T02:54:35;36.87;;;18.53;;
65063;SDS011;51654;51.452;6.644;2022-11-20T02:57:01;34.13;;;18.60;;
65063;SDS011;51654;51.452;6.644;2022-11-20T02:59:28;40.10;;;18.73;;
65063;SDS011;51654;51.452;6.644;2022-11-20T03:01:55;36.20;;;17.77;;
65063;SDS011;51654;51.452;6.644;2022-11-20T03:04:22;36.17;;;17.90;;
65063;SDS011;51654;51.452;6.644;2022-11-20T03:06:48;39.07;;;19.47;;
65063;SDS011;51654;51.452;6.644;2022-11-20T03:09:15;36.93;;;16.80;;
65063;SDS011;51654;51.452;6.644;2022-11-20T03:11:42;34.73;;;18.30;;
65063;SDS011;51654;51.452;6.644;2022-11-20T03:14:08;41.43;;;18.53;;
65063;SDS011;51654;51.452;6.644;2022-11-20T03:16:35;36.43;;;18.77;;
65063;SDS011;51654;51.452;6.644;2022-11-20T03:19:02;33.40;;;17.97;;
65063;SDS011;51654;51.452;6.644;2022-11-20T03:21:29;34.40;;;18.03;;
65063;SDS011;51654;51.452;6.644;2022-11-20T03:23:56;35.97;;;18.37;;
65063;SDS011;51654;51.452;6.644;2022-11-20T03:26:23;30.97;;;17.30;;
65063;SDS011;51654;51.452;6.644;2022-11-20T03:28:52;35.70;;;19.03;;
65063;SDS011;51654;51.452;6.644;2022-11-20T03:31:25;40.20;;;18.10;;
65063;SDS011;51654;51.452;6.644;2022-11-20T03:33:57;28.17;;;18.40;;
65063;SDS011;51654;51.452;6.644;2022-11-20T03:36:25;37.03;;;18.30;;
65063;SDS011;51654;51.452;6.644;2022-11-20T03:38:53;35.30;;;18.70;;
65063;SDS011;51654;51.452;6.644;2022-11-20T03:41:22;36.83;;;18.27;;
65063;SDS011;51654;51.452;6.644;2022-11-20T03:43:51;34.50;;;18.27;;
65063;SDS011;51654;51.452;6.644;2022-11-20T03:46:20;42.10;;;18.40;;
65063;SDS011;51654;51.452;6.644;2022-11-20T03:48:47;37.00;;;17.27;;
65063;SDS011;51654;51.452;6.644;2022-11-20T03:51:21;35.20;;;17.87;;
65063;SDS011;51654;51.452;6.644;2022-11-20T03:53:48;41.07;;;19.17;;
65063;SDS011;51654;51.452;6.644;2022-11-20T03:56:18;38.47;;;18.03;;
65063;SDS011;51654;51.452;6.644;2022-11-20T03:58:54;30.37;;;17.43;;
65063;SDS011;51654;51.452;6.644;2022-11-20T04:01:24;33.70;;;18.43;;
65063;SDS011;51654;51.452;6.644;2022-11-20T04:03:53;34.87;;;17.53;;
65063;SDS011;51654;51.452;6.644;2022-11-20T04:06:28;38.97;;;19.20;;
65063;SDS011;51654;51.452;6.644;2022-11-20T04:08:57;38.30;;;18.37;;
65063;SDS011;51654;51.452;6.644;2022-11-20T04:11:25;31.60;;;17.17;;
65063;SDS011;51654;51.452;6.644;2022-11-20T04:20:44;34.40;;;17.60;;
65063;SDS011;51654;51.452;6.644;2022-11-20T04:23:10;28.50;;;15.10;;
65063;SDS011;51654;51.452;6.644;2022-11-20T04:25:37;40.07;;;15.47;;
65063;SDS011;51654;51.452;6.644;2022-11-20T04:28:04;24.40;;;14.93;;
65063;SDS011;51654;51.452;6.644;2022-11-20T04:30:31;25.27;;;15.07;;
65063;SDS011;51654;51.452;6.644;2022-11-20T04:32:57;29.20;;;15.30;;
65063;SDS011;51654;51.452;6.644;2022-11-20T04:35:24;24.93;;;14.13;;
65063;SDS011;51654;51.452;6.644;2022-11-20T04:37:51;26.43;;;14.03;;
65063;SDS011;51654;51.452;6.644;2022-11-20T04:40:18;25.43;;;14.97;;
65063;SDS011;51654;51.452;6.644;2022-11-20T04:42:45;26.47;;;14.57;;
65063;SDS011;51654;51.452;6.644;2022-11-20T04:45:12;32.53;;;15.43;;
65063;SDS011;51654;51.452;6.644;2022-11-20T04:47:38;23.40;;;13.83;;
65063;SDS011;51654;51.452;6.644;2022-11-20T04:50:05;35.27;;;15.60;;
65063;SDS011;51654;51.452;6.644;2022-11-20T04:52:32;34.23;;;16.23;;
65063;SDS011;51654;51.452;6.644;2022-11-20T04:54:59;27.53;;;14.33;;
65063;SDS011;51654;51.452;6.644;2022-11-20T04:57:26;32.03;;;15.33;;
65063;SDS011;51654;51.452;6.644;2022-11-20T04:59:53;30.47;;;15.77;;
65063;SDS011;51654;51.452;6.644;2022-11-20T05:02:20;34.67;;;15.00;;
65063;SDS011;51654;51.452;6.644;2022-11-20T05:04:47;29.13;;;14.60;;
65063;SDS011;51654;51.452;6.644;2022-11-20T05:07:13;28.10;;;16.03;;
65063;SDS011;51654;51.452;6.644;2022-11-20T05:09:40;32.03;;;17.03;;
65063;SDS011;51654;51.452;6.644;2022-11-20T05:12:08;37.13;;;16.00;;
65063;SDS011;51654;51.452;6.644;2022-11-20T05:14:35;35.07;;;15.20;;
65063;SDS011;51654;51.452;6.644;2022-11-20T05:17:02;33.13;;;15.13;;
65063;SDS011;51654;51.452;6.644;2022-11-20T05:19:29;33.37;;;15.07;;
65063;SDS011;51654;51.452;6.644;2022-11-20T05:21:55;23.57;;;14.23;;
65063;SDS011;51654;51.452;6.644;2022-11-20T05:24:22;39.20;;;14.50;;
65063;SDS011;51654;51.452;6.644;2022-11-20T05:26:49;24.87;;;14.57;;
65063;SDS011;51654;51.452;6.644;2022-11-20T05:29:16;24.80;;;13.83;;
65063;SDS011;51654;51.452;6.644;2022-11-20T05:31:43;31.10;;;14.10;;
65063;SDS011;51654;51.452;6.644;2022-11-20T05:34:09;27.77;;;14.10;;
65063;SDS011;51654;51.452;6.644;2022-11-20T05:36:36;21.97;;;13.23;;
65063;SDS011;51654;51.452;6.644;2022-11-20T05:39:03;24.97;;;14.70;;
65063;SDS011;51654;51.452;6.644;2022-11-20T05:41:30;37.50;;;15.27;;
65063;SDS011;51654;51.452;6.644;2022-11-20T05:43:57;30.17;;;15.30;;
65063;SDS011;51654;51.452;6.644;2022-11-20T05:46:24;26.03;;;13.70;;
65063;SDS011;51654;51.452;6.644;2022-11-20T05:48:54;26.13;;;14.63;;
65063;SDS011;51654;51.452;6.644;2022-11-20T05:51:22;36.20;;;15.83;;
65063;SDS011;51654;51.452;6.644;2022-11-20T05:53:49;34.73;;;15.83;;
65063;SDS011;51654;51.452;6.644;2022-11-20T05:56:16;35.23;;;15.87;;
65063;SDS011;51654;51.452;6.644;2022-11-20T05:58:45;33.00;;;17.00;;
65063;SDS011;51654;51.452;6.644;2022-11-20T06:01:13;32.13;;;17.00;;
65063;SDS011;51654;51.452;6.644;2022-11-20T06:03:42;29.80;;;15.93;;
65063;SDS011;51654;51.452;6.644;2022-11-20T06:06:12;22.43;;;13.97;;
65063;SDS011;51654;51.452;6.644;2022-11-20T06:08:39;30.10;;;16.57;;
65063;SDS011;51654;51.452;6.644;2022-11-20T06:11:07;32.30;;;15.03;;
65063;SDS011;51654;51.452;6.644;2022-11-20T06:13:36;28.83;;;15.17;;
65063;SDS011;51654;51.452;6.644;2022-11-20T06:16:08;28.50;;;15.33;;
65063;SDS011;51654;51.452;6.644;2022-11-20T06:18:35;31.70;;;16.03;;
65063;SDS011;51654;51.452;6.644;2022-11-20T06:21:06;31.20;;;16.17;;
65063;SDS011;51654;51.452;6.644;2022-11-20T06:23:35;34.23;;;16.27;;
65063;SDS011;51654;51.452;6.644;2022-11-20T06:26:03;29.20;;;15.70;;
65063;SDS011;51654;51.452;6.644;2022-11-20T06:28:34;33.10;;;16.30;;
65063;SDS011;51654;51.452;6.644;2022-11-20T06:31:01;37.77;;;16.33;;
65063;SDS011;51654;51.452;6.644;2022-11-20T06:33:28;30.93;;;15.63;;
65063;SDS011;51654;51.452;6.644;2022-11-20T06:35:56;35.70;;;16.27;;
65063;SDS011;51654;51.452;6.644;2022-11-20T06:38:28;22.08;;;11.95;;
65063;SDS011;51654;51.452;6.644;2022-11-20T06:40:55;32.17;;;15.90;;
65063;SDS011;51654;51.452;6.644;2022-11-20T06:43:22;30.13;;;16.40;;
65063;SDS011;51654;51.452;6.644;2022-11-20T06:45:53;31.53;;;15.60;;
65063;SDS011;51654;51.452;6.644;2022-11-20T06:48:21;33.63;;;17.07;;
65063;SDS011;51654;51.452;6.644;2022-11-20T06:50:48;33.13;;;14.97;;
65063;SDS011;51654;51.452;6.644;2022-11-20T06:53:15;32.63;;;15.33;;
65063;SDS011;51654;51.452;6.644;2022-11-20T06:55:45;26.67;;;14.80;;
65063;SDS011;51654;51.452;6.644;2022-11-20T06:58:13;33.03;;;15.70;;
65063;SDS011;51654;51.452;6.644;2022-11-20T07:00:41;32.03;;;15.90;;
65063;SDS011;51654;51.452;6.644;2022-11-20T07:03:08;36.13;;;17.93;;
65063;SDS011;51654;51.452;6.644;2022-11-20T07:05:37;42.20;;;20.27;;
65063;SDS011;51654;51.452;6.644;2022-11-20T07:08:04;34.03;;;18.47;;
65063;SDS011;51654;51.452;6.644;2022-11-20T07:10:31;30.57;;;15.63;;
65063;SDS011;51654;51.452;6.644;2022-11-20T07:12:59;34.40;;;17.20;;
65063;SDS011;51654;51.452;6.644;2022-11-20T07:15:26;28.60;;;15.90;;
65063;SDS011;51654;51.452;6.644;2022-11-20T07:17:53;32.90;;;16.27;;
65063;SDS011;51654;51.452;6.644;2022-11-20T07:20:20;35.77;;;15.60;;
65063;SDS011;51654;51.452;6.644;2022-11-20T07:22:46;27.23;;;15.13;;
65063;SDS011;51654;51.452;6.644;2022-11-20T07:25:19;29.03;;;14.87;;
65063;SDS011;51654;51.452;6.644;2022-11-20T07:27:45;32.27;;;16.07;;
65063;SDS011;51654;51.452;6.644;2022-11-20T07:30:12;31.93;;;16.20;;
65063;SDS011;51654;51.452;6.644;2022-11-20T07:32:40;30.53;;;15.73;;
65063;SDS011;51654;51.452;6.644;2022-11-20T07:35:09;36.77;;;16.73;;
65063;SDS011;51654;51.452;6.644;2022-11-20T07:37:36;27.20;;;14.57;;
65063;SDS011;51654;51.452;6.644;2022-11-20T07:40:03;36.57;;;16.77;;
65063;SDS011;51654;51.452;6.644;2022-11-20T07:42:30;26.47;;;14.13;;
65063;SDS011;51654;51.452;6.644;2022-11-20T07:44:57;36.57;;;15.73;;
65063;SDS011;51654;51.452;6.644;2022-11-20T07:47:24;27.13;;;15.23;;
65063;SDS011;51654;51.452;6.644;2022-11-20T07:49:51;28.33;;;15.63;;
65063;SDS011;51654;51.452;6.644;2022-11-20T07:52:17;22.67;;;14.00;;
65063;SDS011;51654;51.452;6.644;2022-11-20T07:54:44;31.27;;;14.40;;
65063;SDS011;51654;51.452;6.644;2022-11-20T07:57:11;38.13;;;15.50;;
65063;SDS011;51654;51.452;6.644;2022-11-20T07:59:38;30.07;;;14.37;;
65063;SDS011;51654;51.452;6.644;2022-11-20T08:02:05;28.70;;;14.20;;
65063;SDS011;51654;51.452;6.644;2022-11-20T08:04:31;30.40;;;15.17;;
65063;SDS011;51654;51.452;6.644;2022-11-20T08:06:59;25.30;;;14.50;;
65063;SDS011;51654;51.452;6.644;2022-11-20T08:09:26;30.47;;;15.60;;
65063;SDS011;51654;51.452;6.644;2022-11-20T08:11:52;26.00;;;14.20;;
65063;SDS011;51654;51.452;6.644;2022-11-20T08:14:38;29.10;;;14.00;;
65063;SDS011;51654;51.452;6.644;2022-11-20T08:17:04;39.00;;;17.37;;
65063;SDS011;51654;51.452;6.644;2022-11-20T08:19:31;28.00;;;14.00;;
65063;SDS011;51654;51.452;6.644;2022-11-20T08:24:25;24.53;;;13.60;;
65063;SDS011;51654;51.452;6.644;2022-11-20T08:26:56;28.00;;;14.27;;
65063;SDS011;51654;51.452;6.644;2022-11-20T08:29:26;21.70;;;13.67;;
65063;SDS011;51654;51.452;6.644;2022-11-20T08:31:53;28.80;;;13.57;;
65063;SDS011;51654;51.452;6.644;2022-11-20T08:34:20;39.07;;;13.37;;
65063;SDS011;51654;51.452;6.644;2022-11-20T08:36:47;31.23;;;12.83;;
65063;SDS011;51654;51.452;6.644;2022-11-20T08:39:14;29.13;;;14.43;;
65063;SDS011;51654;51.452;6.644;2022-11-20T08:41:41;23.57;;;11.80;;
65063;SDS011;51654;51.452;6.644;2022-11-20T08:44:08;24.47;;;12.60;;
65063;SDS011;51654;51.452;6.644;2022-11-20T08:46:35;35.23;;;15.20;;
65063;SDS011;51654;51.452;6.644;2022-11-20T08:49:04;23.07;;;13.37;;
65063;SDS011;51654;51.452;6.644;2022-11-20T08:51:32;28.27;;;13.50;;
65063;SDS011;51654;51.452;6.644;2022-11-20T08:53:59;25.13;;;13.10;;
65063;SDS011;51654;51.452;6.644;2022-11-20T08:56:26;30.60;;;13.23;;
65063;SDS011;51654;51.452;6.644;2022-11-20T08:58:53;24.93;;;13.30;;
65063;SDS011;51654;51.452;6.644;2022-11-20T09:01:40;26.90;;;13.10;;
65063;SDS011;51654;51.452;6.644;2022-11-20T09:04:07;19.70;;;10.77;;
65063;SDS011;51654;51.452;6.644;2022-11-20T09:06:33;24.63;;;12.97;;
65063;SDS011;51654;51.452;6.644;2022-11-20T09:11:31;24.67;;;12.43;;
65063;SDS011;51654;51.452;6.644;2022-11-20T09:14:02;33.40;;;11.53;;
65063;SDS011;51654;51.452;6.644;2022-11-20T09:16:30;27.17;;;11.93;;
65063;SDS011;51654;51.452;6.644;2022-11-20T09:18:57;26.83;;;11.73;;
65063;SDS011;51654;51.452;6.644;2022-11-20T09:21:44;24.33;;;13.57;;
65063;SDS011;51654;51.452;6.644;2022-11-20T09:24:10;21.87;;;11.77;;
65063;SDS011;51654;51.452;6.644;2022-11-20T09:26:37;53.47;;;19.57;;
65063;SDS011;51654;51.452;6.644;2022-11-20T09:29:07;35.33;;;15.03;;
65063;SDS011;51654;51.452;6.644;2022-11-20T09:31:34;22.47;;;12.23;;
65063;SDS011;51654;51.452;6.644;2022-11-20T09:34:02;18.97;;;11.27;;
65063;SDS011;51654;51.452;6.644;2022-11-20T09:58:52;16.73;;;10.30;;
65063;SDS011;51654;51.452;6.644;2022-11-20T10:01:21;21.20;;;11.37;;
65063;SDS011;51654;51.452;6.644;2022-11-20T10:03:52;20.70;;;11.97;;
65063;SDS011;51654;51.452;6.644;2022-11-20T10:09:40;18.73;;;11.10;;
65063;SDS011;51654;51.452;6.644;2022-11-20T10:12:15;26.23;;;12.17;;
65063;SDS011;51654;51.452;6.644;2022-11-20T10:46:40;32.67;;;14.17;;
65063;SDS011;51654;51.452;6.644;2022-11-20T10:49:19;30.57;;;12.33;;
65063;SDS011;51654;51.452;6.644;2022-11-20T10:51:53;26.10;;;12.60;;
65063;SDS011;51654;51.452;6.644;2022-11-20T10:54:31;27.20;;;14.30;;
65063;SDS011;51654;51.452;6.644;2022-11-20T10:57:02;30.03;;;17.73;;
65063;SDS011;51654;51.452;6.644;2022-11-20T10:59:38;25.97;;;14.07;;
65063;SDS011;51654;51.452;6.644;2022-11-20T11:02:23;28.80;;;15.20;;
65063;SDS011;51654;51.452;6.644;2022-11-20T11:04:54;32.45;;;14.35;;
65063;SDS011;51654;51.452;6.644;2022-11-20T11:07:22;30.00;;;15.63;;
65063;SDS011;51654;51.452;6.644;2022-11-20T11:09:54;29.77;;;14.40;;
65063;SDS011;51654;51.452;6.644;2022-11-20T11:12:22;37.40;;;16.20;;
65063;SDS011;51654;51.452;6.644;2022-11-20T11:14:51;32.17;;;15.10;;
65063;SDS011;51654;51.452;6.644;2022-11-20T11:17:20;31.50;;;15.57;;
65063;SDS011;51654;51.452;6.644;2022-11-20T11:20:01;34.47;;;15.97;;
65063;SDS011;51654;51.452;6.644;2022-11-20T11:27:23;31.90;;;15.03;;
65063;SDS011;51654;51.452;6.644;2022-11-20T11:29:50;30.23;;;14.03;;
65063;SDS011;51654;51.452;6.644;2022-11-20T11:32:28;33.17;;;14.60;;
65063;SDS011;51654;51.452;6.644;2022-11-20T11:34:58;31.47;;;15.40;;
65063;SDS011;51654;51.452;6.644;2022-11-20T11:37:26;57.90;;;24.17;;
65063;SDS011;51654;51.452;6.644;2022-11-20T11:39:59;31.37;;;14.83;;
65063;SDS011;51654;51.452;6.644;2022-11-20T11:42:50;24.83;;;12.10;;
65063;SDS011;51654;51.452;6.644;2022-11-20T11:45:19;38.53;;;14.83;;
65063;SDS011;51654;51.452;6.644;2022-11-20T11:47:46;34.93;;;15.53;;
65063;SDS011;51654;51.452;6.644;2022-11-20T11:55:35;27.13;;;13.27;;
65063;SDS011;51654;51.452;6.644;2022-11-20T11:58:11;29.87;;;12.63;;
65063;SDS011;51654;51.452;6.644;2022-11-20T12:00:39;26.50;;;13.70;;
65063;SDS011;51654;51.452;6.644;2022-11-20T12:03:13;33.93;;;13.37;;
65063;SDS011;51654;51.452;6.644;2022-11-20T12:05:45;26.90;;;13.05;;
65063;SDS011;51654;51.452;6.644;2022-11-20T12:08:38;29.38;;;14.07;;
65063;SDS011;51654;51.452;6.644;2022-11-20T12:11:06;29.73;;;15.33;;
65063;SDS011;51654;51.452;6.644;2022-11-20T12:16:11;28.03;;;13.13;;
65063;SDS011;51654;51.452;6.644;2022-11-20T12:18:39;38.17;;;13.00;;
65063;SDS011;51654;51.452;6.644;2022-11-20T12:21:20;29.37;;;12.37;;
65063;SDS011;51654;51.452;6.644;2022-11-20T12:24:05;37.67;;;13.13;;
65063;SDS011;51654;51.452;6.644;2022-11-20T12:26:55;30.23;;;14.03;;
65063;SDS011;51654;51.452;6.644;2022-11-20T12:29:43;24.65;;;13.63;;
65063;SDS011;51654;51.452;6.644;2022-11-20T12:37:45;30.97;;;12.40;;
65063;SDS011;51654;51.452;6.644;2022-11-20T12:40:18;28.80;;;12.17;;
65063;SDS011;51654;51.452;6.644;2022-11-20T12:50:51;23.97;;;11.23;;
65063;SDS011;51654;51.452;6.644;2022-11-20T12:53:44;19.07;;;10.67;;
65063;SDS011;51654;51.452;6.644;2022-11-20T12:56:39;28.27;;;14.00;;
65063;SDS011;51654;51.452;6.644;2022-11-20T13:01:57;22.27;;;11.50;;
65063;SDS011;51654;51.452;6.644;2022-11-20T13:07:04;25.48;;;11.95;;
65063;SDS011;51654;51.452;6.644;2022-11-20T13:09:32;35.43;;;14.77;;
65063;SDS011;51654;51.452;6.644;2022-11-20T13:12:06;25.43;;;11.60;;
65063;SDS011;51654;51.452;6.644;2022-11-20T13:14:37;30.67;;;12.97;;
65063;SDS011;51654;51.452;6.644;2022-11-20T13:17:14;35.17;;;12.80;;
65063;SDS011;51654;51.452;6.644;2022-11-20T13:19:46;25.90;;;12.17;;
65063;SDS011;51654;51.452;6.644;2022-11-20T13:22:23;27.80;;;14.77;;
65063;SDS011;51654;51.452;6.644;2022-11-20T13:24:51;24.30;;;13.10;;
65063;SDS011;51654;51.452;6.644;2022-11-20T13:27:19;26.37;;;12.87;;
65063;SDS011;51654;51.452;6.644;2022-11-20T13:29:58;24.90;;;11.70;;
65063;SDS011;51654;51.452;6.644;2022-11-20T13:32:26;26.00;;;10.93;;
65063;SDS011;51654;51.452;6.644;2022-11-20T13:34:59;27.73;;;12.80;;
65063;SDS011;51654;51.452;6.644;2022-11-20T13:37:29;30.83;;;13.80;;
65063;SDS011;51654;51.452;6.644;2022-11-20T13:42:40;24.43;;;11.93;;
65063;SDS011;51654;51.452;6.644;2022-11-20T13:45:11;33.60;;;13.20;;
65063;SDS011;51654;51.452;6.644;2022-11-20T13:47:46;21.33;;;11.57;;
65063;SDS011;51654;51.452;6.644;2022-11-20T13:50:14;24.57;;;12.67;;
65063;SDS011;51654;51.452;6.644;2022-11-20T13:52:55;22.63;;;11.73;;
65063;SDS011;51654;51.452;6.644;2022-11-20T13:57:57;26.90;;;11.97;;
65063;SDS011;51654;51.452;6.644;2022-11-20T14:00:26;19.63;;;11.80;;
65063;SDS011;51654;51.452;6.644;2022-11-20T14:05:34;24.40;;;12.17;;
65063;SDS011;51654;51.452;6.644;2022-11-20T14:08:05;27.17;;;11.27;;
65063;SDS011;51654;51.452;6.644;2022-11-20T14:10:33;22.23;;;12.00;;
65063;SDS011;51654;51.452;6.644;2022-11-20T14:13:09;27.70;;;13.17;;
65063;SDS011;51654;51.452;6.644;2022-11-20T14:15:37;22.43;;;11.97;;
65063;SDS011;51654;51.452;6.644;2022-11-20T14:18:14;23.00;;;12.38;;
65063;SDS011;51654;51.452;6.644;2022-11-20T14:20:42;21.83;;;11.43;;
65063;SDS011;51654;51.452;6.644;2022-11-20T14:23:10;20.53;;;11.70;;
65063;SDS011;51654;51.452;6.644;2022-11-20T14:25:41;28.30;;;13.70;;
65063;SDS011;51654;51.452;6.644;2022-11-20T14:28:18;30.10;;;12.37;;
65063;SDS011;51654;51.452;6.644;2022-11-20T14:30:47;27.60;;;13.20;;
65063;SDS011;51654;51.452;6.644;2022-11-20T14:33:15;28.57;;;12.83;;
65063;SDS011;51654;51.452;6.644;2022-11-20T14:35:53;30.83;;;13.60;;
65063;SDS011;51654;51.452;6.644;2022-11-20T14:38:29;24.60;;;13.37;;
65063;SDS011;51654;51.452;6.644;2022-11-20T14:44:10;34.20;;;13.83;;
65063;SDS011;51654;51.452;6.644;2022-11-20T14:46:38;23.27;;;12.53;;
65063;SDS011;51654;51.452;6.644;2022-11-20T14:51:33;23.33;;;12.90;;
65063;SDS011;51654;51.452;6.644;2022-11-20T14:54:14;27.93;;;13.40;;
65063;SDS011;51654;51.452;6.644;2022-11-20T14:56:42;32.80;;;13.20;;
65063;SDS011;51654;51.452;6.644;2022-11-20T14:59:27;30.17;;;13.60;;
65063;SDS011;51654;51.452;6.644;2022-11-20T15:01:59;24.63;;;13.03;;
65063;SDS011;51654;51.452;6.644;2022-11-20T15:04:27;30.77;;;13.37;;
65063;SDS011;51654;51.452;6.644;2022-11-20T15:06:55;32.53;;;12.43;;
65063;SDS011;51654;51.452;6.644;2022-11-20T15:09:22;29.73;;;13.43;;
65063;SDS011;51654;51.452;6.644;2022-11-20T15:12:02;33.37;;;14.17;;
65063;SDS011;51654;51.452;6.644;2022-11-20T15:14:30;25.70;;;13.37;;
65063;SDS011;51654;51.452;6.644;2022-11-20T15:16:58;31.90;;;13.97;;
65063;SDS011;51654;51.452;6.644;2022-11-20T15:26:47;37.20;;;13.97;;
65063;SDS011;51654;51.452;6.644;2022-11-20T15:29:15;36.60;;;14.87;;
65063;SDS011;51654;51.452;6.644;2022-11-20T15:31:47;31.17;;;14.40;;
65063;SDS011;51654;51.452;6.644;2022-11-20T15:34:15;31.50;;;15.20;;
65063;SDS011;51654;51.452;6.644;2022-11-20T15:39:09;31.13;;;14.30;;
65063;SDS011;51654;51.452;6.644;2022-11-20T15:41:37;28.70;;;14.53;;
65063;SDS011;51654;51.452;6.644;2022-11-20T15:44:05;31.60;;;14.20;;
65063;SDS011;51654;51.452;6.644;2022-11-20T15:46:33;30.60;;;15.63;;
65063;SDS011;51654;51.452;6.644;2022-11-20T15:49:04;37.73;;;15.20;;
65063;SDS011;51654;51.452;6.644;2022-11-20T15:51:35;37.57;;;16.13;;
65063;SDS011;51654;51.452;6.644;2022-11-20T15:54:13;36.30;;;16.67;;
65063;SDS011;51654;51.452;6.644;2022-11-20T15:56:41;29.73;;;14.23;;
65063;SDS011;51654;51.452;6.644;2022-11-20T15:59:08;31.97;;;14.17;;
65063;SDS011;51654;51.452;6.644;2022-11-20T16:01:35;35.37;;;16.57;;
65063;SDS011;51654;51.452;6.644;2022-11-20T16:04:04;34.57;;;14.57;;
65063;SDS011;51654;51.452;6.644;2022-11-20T16:11:25;44.37;;;16.53;;
65063;SDS011;51654;51.452;6.644;2022-11-20T16:13:53;42.60;;;15.35;;
65063;SDS011;51654;51.452;6.644;2022-11-20T16:16:39;38.33;;;15.67;;
65063;SDS011;51654;51.452;6.644;2022-11-20T16:19:11;40.10;;;15.10;;
65063;SDS011;51654;51.452;6.644;2022-11-20T16:21:38;49.30;;;17.70;;
65063;SDS011;51654;51.452;6.644;2022-11-20T16:24:11;36.53;;;13.97;;
65063;SDS011;51654;51.452;6.644;2022-11-20T16:26:39;32.43;;;15.03;;
65063;SDS011;51654;51.452;6.644;2022-11-20T16:29:06;23.27;;;13.97;;
65063;SDS011;51654;51.452;6.644;2022-11-20T16:31:34;35.63;;;16.17;;
65063;SDS011;51654;51.452;6.644;2022-11-20T16:34:02;45.80;;;16.10;;
65063;SDS011;51654;51.452;6.644;2022-11-20T16:36:38;36.63;;;14.80;;
65063;SDS011;51654;51.452;6.644;2022-11-20T16:39:06;41.47;;;16.27;;
65063;SDS011;51654;51.452;6.644;2022-11-20T16:41:33;32.13;;;14.53;;
65063;SDS011;51654;51.452;6.644;2022-11-20T16:44:01;30.00;;;13.77;;
65063;SDS011;51654;51.452;6.644;2022-11-20T16:46:30;30.13;;;13.90;;
65063;SDS011;51654;51.452;6.644;2022-11-20T16:48:58;32.10;;;14.67;;
65063;SDS011;51654;51.452;6.644;2022-11-20T16:51:26;27.40;;;13.60;;
65063;SDS011;51654;51.452;6.644;2022-11-20T16:53:54;38.77;;;13.67;;
65063;SDS011;51654;51.452;6.644;2022-11-20T16:56:25;26.30;;;13.17;;